createdAt,value
2023-05-03T00:00:29.559Z,91.93
2023-05-03T00:01:29.550Z,91.97
2023-05-03T00:02:29.602Z,92.39
2023-05-03T00:03:29.529Z,92.29
2023-05-03T00:04:29.567Z,92.29
2023-05-03T00:05:29.553Z,92.33
2023-05-03T00:06:29.544Z,92.39
2023-05-03T00:07:29.489Z,92.08
2023-05-03T00:08:29.507Z,92.02
2023-05-03T00:09:29.500Z,92.95
2023-05-03T00:10:29.499Z,92.74
2023-05-03T00:11:29.463Z,92.74
2023-05-03T00:12:29.459Z,92.54
2023-05-03T00:13:29.447Z,92.85
2023-05-03T00:14:29.468Z,92.70
2023-05-03T00:15:29.425Z,92.74
2023-05-03T00:16:29.456Z,92.39
2023-05-03T00:17:29.424Z,92.39
2023-05-03T00:18:29.408Z,92.74
2023-05-03T00:19:31.888Z,92.74
2023-05-03T00:20:30.435Z,92.33
2023-05-03T00:21:29.406Z,92.64
2023-05-03T00:22:29.376Z,92.70
2023-05-03T00:23:29.401Z,92.54
2023-05-03T00:24:29.390Z,92.74
2023-05-03T00:25:29.353Z,92.95
2023-05-03T00:26:29.336Z,92.85
2023-05-03T00:27:29.340Z,92.85
2023-05-03T00:28:29.339Z,92.74
2023-05-03T00:29:29.342Z,92.54
2023-05-03T00:30:29.313Z,92.54
2023-05-03T00:31:29.351Z,92.22
2023-05-03T00:32:29.294Z,92.27
2023-05-03T00:33:29.287Z,92.58
2023-05-03T00:34:29.298Z,92.79
2023-05-03T00:35:29.265Z,93.10
2023-05-03T00:36:29.278Z,92.74
2023-05-03T00:37:29.256Z,92.02
2023-05-03T00:38:29.258Z,92.16
2023-05-03T00:39:29.277Z,92.47
2023-05-03T00:40:29.255Z,92.68
2023-05-03T00:41:29.250Z,92.79
2023-05-03T00:42:29.225Z,92.58
2023-05-03T00:43:29.215Z,92.89
2023-05-03T00:44:29.292Z,92.89
2023-05-03T00:45:29.204Z,92.79
2023-05-03T00:46:29.237Z,92.89
2023-05-03T00:47:29.201Z,92.89
2023-05-03T00:48:29.191Z,93.14
2023-05-03T00:49:29.217Z,92.62
2023-05-03T00:50:29.180Z,92.93
2023-05-03T00:51:29.167Z,93.20
2023-05-03T00:52:29.146Z,93.77
2023-05-03T00:53:29.175Z,93.98
2023-05-03T00:54:29.208Z,93.20
2023-05-03T00:55:29.151Z,93.14
2023-05-03T00:56:31.135Z,92.83
2023-05-03T00:57:29.143Z,92.83
2023-05-03T00:58:29.102Z,93.24
2023-05-03T00:59:29.132Z,92.93
2023-05-03T01:00:29.102Z,93.50
2023-05-03T01:01:29.115Z,93.81
2023-05-03T01:02:29.173Z,93.71
2023-05-03T01:03:29.145Z,93.66
2023-05-03T01:04:29.104Z,93.81
2023-05-03T01:05:29.063Z,93.71
2023-05-03T01:06:29.085Z,93.81
2023-05-03T01:07:29.043Z,93.81
2023-05-03T01:08:29.058Z,93.91
2023-05-03T01:09:29.052Z,93.91
2023-05-03T01:10:29.017Z,94.23
2023-05-03T01:11:29.016Z,93.71
2023-05-03T01:12:29.011Z,93.71
2023-05-03T01:13:28.994Z,93.81
2023-05-03T01:14:29.017Z,94.23
2023-05-03T01:15:28.985Z,93.71
2023-05-03T01:16:29.001Z,93.91
2023-05-03T01:17:29.059Z,93.81
2023-05-03T01:18:28.953Z,94.12
2023-05-03T01:19:29.013Z,93.60
2023-05-03T01:20:28.934Z,93.81
2023-05-03T01:21:28.926Z,93.71
2023-05-03T01:22:28.918Z,93.81
2023-05-03T01:23:28.910Z,93.91
2023-05-03T01:24:28.918Z,93.75
2023-05-03T01:25:28.883Z,93.85
2023-05-03T01:26:28.883Z,94.69
2023-05-03T01:27:28.876Z,94.37
2023-05-03T01:28:28.857Z,94.48
2023-05-03T01:29:28.887Z,93.96
2023-05-03T01:30:28.853Z,93.85
2023-05-03T01:31:28.941Z,94.17
2023-05-03T01:32:28.827Z,93.85
2023-05-03T01:33:28.838Z,93.96
2023-05-03T01:34:28.836Z,94.06
2023-05-03T01:35:28.810Z,93.75
2023-05-03T01:36:28.809Z,94.31
2023-05-03T01:37:28.789Z,93.96
2023-05-03T01:38:28.784Z,94.48
2023-05-03T01:39:28.777Z,93.96
2023-05-03T01:40:28.797Z,93.75
2023-05-03T01:41:28.803Z,93.85
2023-05-03T01:42:28.748Z,94.27
2023-05-03T01:43:28.747Z,94.52
2023-05-03T01:44:28.736Z,94.00
2023-05-03T01:45:28.800Z,94.00
2023-05-03T01:46:28.810Z,94.10
2023-05-03T01:47:28.760Z,94.52
2023-05-03T01:48:28.739Z,94.73
2023-05-03T01:49:28.713Z,94.31
2023-05-03T01:50:28.721Z,94.94
2023-05-03T01:51:28.696Z,94.73
2023-05-03T01:52:28.709Z,95.10
2023-05-03T01:53:28.686Z,94.37
2023-05-03T01:54:28.681Z,94.48
2023-05-03T01:55:28.690Z,93.75
2023-05-03T01:56:28.647Z,94.17
2023-05-03T01:57:28.646Z,93.75
2023-05-03T01:58:28.644Z,93.85
2023-05-03T01:59:28.673Z,94.21
2023-05-03T02:00:28.622Z,94.06
2023-05-03T02:01:28.647Z,93.69
2023-05-03T02:02:28.631Z,93.69
2023-05-03T02:03:28.594Z,93.79
2023-05-03T02:04:28.669Z,93.44
2023-05-03T02:05:28.591Z,93.69
2023-05-03T02:06:28.639Z,93.69
2023-05-03T02:07:29.570Z,93.69
2023-05-03T02:08:28.564Z,93.48
2023-05-03T02:09:28.600Z,93.79
2023-05-03T02:10:28.549Z,93.90
2023-05-03T02:11:28.546Z,93.90
2023-05-03T02:12:28.556Z,93.84
2023-05-03T02:13:28.523Z,94.35
2023-05-03T02:14:28.540Z,94.15
2023-05-03T02:15:28.517Z,94.35
2023-05-03T02:16:28.506Z,94.57
2023-05-03T02:17:28.547Z,94.78
2023-05-03T02:18:28.497Z,94.78
2023-05-03T02:19:28.499Z,94.35
2023-05-03T02:20:28.470Z,94.78
2023-05-03T02:21:28.460Z,94.57
2023-05-03T02:22:28.484Z,94.67
2023-05-03T02:23:28.452Z,94.57
2023-05-03T02:24:28.467Z,94.78
2023-05-03T02:25:28.436Z,94.78
2023-05-03T02:26:28.420Z,94.88
2023-05-03T02:27:28.416Z,94.88
2023-05-03T02:28:28.405Z,94.78
2023-05-03T02:29:28.425Z,94.57
2023-05-03T02:30:28.398Z,94.57
2023-05-03T02:31:28.449Z,94.88
2023-05-03T02:32:28.494Z,94.67
2023-05-03T02:33:28.367Z,94.67
2023-05-03T02:34:28.385Z,94.57
2023-05-03T02:35:28.353Z,94.57
2023-05-03T02:36:28.342Z,94.67
2023-05-03T02:37:28.340Z,94.78
2023-05-03T02:38:28.332Z,94.78
2023-05-03T02:39:28.348Z,94.78
2023-05-03T02:40:28.345Z,94.82
2023-05-03T02:41:28.307Z,94.71
2023-05-03T02:42:28.306Z,94.92
2023-05-03T02:43:28.307Z,95.86
2023-05-03T02:44:28.313Z,95.65
2023-05-03T02:45:28.270Z,95.80
2023-05-03T02:46:28.300Z,95.55
2023-05-03T02:47:28.313Z,95.59
2023-05-03T02:48:28.257Z,95.59
2023-05-03T02:49:28.275Z,96.05
2023-05-03T02:50:28.253Z,95.90
2023-05-03T02:51:28.239Z,95.90
2023-05-03T02:52:28.220Z,95.90
2023-05-03T02:53:28.223Z,95.90
2023-05-03T02:54:28.244Z,96.11
2023-05-03T02:55:28.197Z,95.90
2023-05-03T02:56:28.198Z,95.90
2023-05-03T02:57:28.198Z,96.01
2023-05-03T02:58:28.185Z,96.33
2023-05-03T02:59:28.193Z,96.33
2023-05-03T03:00:28.192Z,96.26
2023-05-03T03:01:28.205Z,96.33
2023-05-03T03:02:28.243Z,96.33
2023-05-03T03:03:28.229Z,96.11
2023-05-03T03:04:28.157Z,95.95
2023-05-03T03:05:28.120Z,95.95
2023-05-03T03:06:28.265Z,95.90
2023-05-03T03:07:28.113Z,96.11
2023-05-03T03:08:28.102Z,95.80
2023-05-03T03:09:28.126Z,95.95
2023-05-03T03:10:28.090Z,96.05
2023-05-03T03:11:28.075Z,96.16
2023-05-03T03:12:28.068Z,96.22
2023-05-03T03:13:28.076Z,96.11
2023-05-03T03:14:28.085Z,95.95
2023-05-03T03:15:28.060Z,96.26
2023-05-03T03:16:28.066Z,95.64
2023-05-03T03:17:28.059Z,96.22
2023-05-03T03:18:28.036Z,96.16
2023-05-03T03:19:28.016Z,96.05
2023-05-03T03:20:28.042Z,96.37
2023-05-03T03:21:28.000Z,96.16
2023-05-03T03:22:28.015Z,96.37
2023-05-03T03:23:28.003Z,96.78
2023-05-03T03:24:27.979Z,96.68
2023-05-03T03:25:27.995Z,96.68
2023-05-03T03:26:27.966Z,96.68
2023-05-03T03:27:27.956Z,96.68
2023-05-03T03:28:27.957Z,96.47
2023-05-03T03:29:27.941Z,96.89
2023-05-03T03:30:27.965Z,97.14
2023-05-03T03:31:27.954Z,97.20
2023-05-03T03:32:27.916Z,96.83
2023-05-03T03:33:27.918Z,97.20
2023-05-03T03:34:27.908Z,97.10
2023-05-03T03:35:27.933Z,96.94
2023-05-03T03:36:27.937Z,97.45
2023-05-03T03:37:27.880Z,97.56
2023-05-03T03:38:27.873Z,97.77
2023-05-03T03:39:27.862Z,97.67
2023-05-03T03:40:27.881Z,97.61
2023-05-03T03:41:27.863Z,97.56
2023-05-03T03:42:27.840Z,97.14
2023-05-03T03:43:27.851Z,97.52
2023-05-03T03:44:27.826Z,97.67
2023-05-03T03:45:27.871Z,97.67
2023-05-03T03:46:27.844Z,97.45
2023-05-03T03:47:27.842Z,97.52
2023-05-03T03:48:27.795Z,97.67
2023-05-03T03:49:27.789Z,97.56
2023-05-03T03:50:28.081Z,97.77
2023-05-03T03:51:27.776Z,97.35
2023-05-03T03:52:27.797Z,96.62
2023-05-03T03:53:27.764Z,96.94
2023-05-03T03:54:27.752Z,97.25
2023-05-03T03:55:27.777Z,97.14
2023-05-03T03:56:27.735Z,96.83
2023-05-03T03:57:27.733Z,96.83
2023-05-03T03:58:27.720Z,97.35
2023-05-03T03:59:27.716Z,97.45
2023-05-03T04:00:27.733Z,97.77
2023-05-03T04:01:27.703Z,97.45
2023-05-03T04:02:27.905Z,97.45
2023-05-03T04:03:27.753Z,97.14
2023-05-03T04:04:27.684Z,97.56
2023-05-03T04:05:27.713Z,97.56
2023-05-03T04:06:27.704Z,97.52
2023-05-03T04:07:27.644Z,97.62
2023-05-03T04:08:27.644Z,97.41
2023-05-03T04:09:27.628Z,97.20
2023-05-03T04:10:27.651Z,97.10
2023-05-03T04:11:28.627Z,96.89
2023-05-03T04:12:27.620Z,96.58
2023-05-03T04:13:27.601Z,97.20
2023-05-03T04:14:27.595Z,96.58
2023-05-03T04:15:27.644Z,96.58
2023-05-03T04:16:27.610Z,96.68
2023-05-03T04:17:27.606Z,96.68
2023-05-03T04:18:27.567Z,96.58
2023-05-03T04:19:27.555Z,96.89
2023-05-03T04:20:27.574Z,97.31
2023-05-03T04:21:27.560Z,97.52
2023-05-03T04:22:27.537Z,97.41
2023-05-03T04:23:27.530Z,98.04
2023-05-03T04:24:27.519Z,97.89
2023-05-03T04:25:27.537Z,97.68
2023-05-03T04:26:31.689Z,97.89
2023-05-03T04:27:28.501Z,97.94
2023-05-03T04:28:27.496Z,98.04
2023-05-03T04:29:27.483Z,97.52
2023-05-03T04:30:27.495Z,97.41
2023-05-03T04:31:27.523Z,97.41
2023-05-03T04:32:27.482Z,97.31
2023-05-03T04:33:27.462Z,97.62
2023-05-03T04:34:27.456Z,97.16
2023-05-03T04:35:27.466Z,97.47
2023-05-03T04:36:27.434Z,97.05
2023-05-03T04:37:27.418Z,96.53
2023-05-03T04:38:27.409Z,96.33
2023-05-03T04:39:27.405Z,96.64
2023-05-03T04:40:27.434Z,96.17
2023-05-03T04:41:27.391Z,95.40
2023-05-03T04:42:27.390Z,94.67
2023-05-03T04:43:27.380Z,94.00
2023-05-03T04:44:27.354Z,93.75
2023-05-03T04:45:28.423Z,92.46
2023-05-03T04:46:27.371Z,91.52
2023-05-03T04:47:27.360Z,91.46
2023-05-03T04:48:27.336Z,92.08
2023-05-03T04:49:27.336Z,91.87
2023-05-03T04:50:27.368Z,91.77
2023-05-03T04:51:27.349Z,91.77
2023-05-03T04:52:27.321Z,91.77
2023-05-03T04:53:27.299Z,91.77
2023-05-03T04:54:27.303Z,91.66
2023-05-03T04:55:27.285Z,91.91
2023-05-03T04:56:27.308Z,91.87
2023-05-03T04:57:27.275Z,92.14
2023-05-03T04:58:27.256Z,92.10
2023-05-03T04:59:27.249Z,91.60
2023-05-03T05:00:27.303Z,90.25
2023-05-03T05:01:27.264Z,89.94
2023-05-03T05:02:27.379Z,89.62
2023-05-03T05:03:27.302Z,89.41
2023-05-03T05:04:27.206Z,89.00
2023-05-03T05:05:27.233Z,89.35
2023-05-03T05:06:27.236Z,89.66
2023-05-03T05:07:27.186Z,90.50
2023-05-03T05:08:27.216Z,90.04
2023-05-03T05:09:27.180Z,89.20
2023-05-03T05:10:27.195Z,90.04
2023-05-03T05:11:27.175Z,90.29
2023-05-03T05:12:27.150Z,91.20
2023-05-03T05:13:27.152Z,92.97
2023-05-03T05:14:27.151Z,92.79
2023-05-03T05:15:27.151Z,91.75
2023-05-03T05:16:27.137Z,91.53
2023-05-03T05:17:27.188Z,91.75
2023-05-03T05:18:27.130Z,92.02
2023-05-03T05:19:27.098Z,92.64
2023-05-03T05:20:27.151Z,91.66
2023-05-03T05:21:27.082Z,90.93
2023-05-03T05:22:27.078Z,91.37
2023-05-03T05:23:27.077Z,92.87
2023-05-03T05:24:27.073Z,95.46
2023-05-03T05:25:27.074Z,96.15
2023-05-03T05:26:27.051Z,96.06
2023-05-03T05:27:27.150Z,95.39
2023-05-03T05:28:27.062Z,94.51
2023-05-03T05:29:27.029Z,93.85
2023-05-03T05:30:27.052Z,93.14
2023-05-03T05:31:27.041Z,91.33
2023-05-03T05:32:27.014Z,90.72
2023-05-03T05:33:27.071Z,89.06
2023-05-03T05:34:27.107Z,89.15
2023-05-03T05:35:59.162Z,90.70
2023-05-03T05:36:26.974Z,89.52
2023-05-03T05:37:26.965Z,89.79
2023-05-03T05:38:26.955Z,88.79
2023-05-03T05:39:26.950Z,89.18
2023-05-03T05:40:26.949Z,90.70
2023-05-03T05:41:26.990Z,89.52
2023-05-03T05:42:26.936Z,89.65
2023-05-03T05:43:26.920Z,87.84
2023-05-03T05:44:26.909Z,86.35
2023-05-03T05:45:26.915Z,86.10
2023-05-03T05:46:26.957Z,85.06
2023-05-03T05:47:26.917Z,85.09
2023-05-03T05:48:26.891Z,82.95
2023-05-03T05:49:27.308Z,82.29
2023-05-03T05:50:26.881Z,82.53
2023-05-03T05:51:26.903Z,82.60
2023-05-03T05:52:26.863Z,84.06
2023-05-03T05:53:26.843Z,84.22
2023-05-03T05:54:28.063Z,84.45
2023-05-03T05:55:26.835Z,82.60
2023-05-03T05:56:26.847Z,81.38
2023-05-03T05:57:26.812Z,80.73
2023-05-03T05:58:26.806Z,81.41
2023-05-03T05:59:26.837Z,79.14
2023-05-03T06:00:26.799Z,79.97
2023-05-03T06:01:26.815Z,79.41
2023-05-03T06:02:26.842Z,78.90
2023-05-03T06:03:26.781Z,79.25
2023-05-03T06:04:26.848Z,80.93
2023-05-03T06:05:26.774Z,80.97
2023-05-03T06:06:26.795Z,82.73
2023-05-03T06:07:26.739Z,82.52
2023-05-03T06:08:26.737Z,83.04
2023-05-03T06:09:26.733Z,82.96
2023-05-03T06:10:26.801Z,82.04
2023-05-03T06:11:27.395Z,84.47
2023-05-03T06:12:26.700Z,87.38
2023-05-03T06:13:26.687Z,89.71
2023-05-03T06:14:26.686Z,91.16
2023-05-03T06:15:26.791Z,91.18
2023-05-03T06:16:26.751Z,91.12
2023-05-03T06:17:26.655Z,90.29
2023-05-03T06:18:27.700Z,91.18
2023-05-03T06:19:26.660Z,91.03
2023-05-03T06:20:26.648Z,91.05
2023-05-03T06:21:26.668Z,90.39
2023-05-03T06:22:26.708Z,88.20
2023-05-03T06:23:26.617Z,90.12
2023-05-03T06:24:26.631Z,91.06
2023-05-03T06:25:26.598Z,92.30
2023-05-03T06:26:26.618Z,92.57
2023-05-03T06:27:26.620Z,91.99
2023-05-03T06:28:26.590Z,93.59
2023-05-03T06:29:26.567Z,93.44
2023-05-03T06:30:26.586Z,93.65
2023-05-03T06:31:27.382Z,93.65
2023-05-03T06:32:26.599Z,93.29
2023-05-03T06:33:26.557Z,93.71
2023-05-03T06:34:26.544Z,93.73
2023-05-03T06:35:26.535Z,93.16
2023-05-03T06:36:26.553Z,91.82
2023-05-03T06:37:26.533Z,90.37
2023-05-03T06:38:26.511Z,90.89
2023-05-03T06:39:26.500Z,90.95
2023-05-03T06:40:26.515Z,89.81
2023-05-03T06:41:26.515Z,90.56
2023-05-03T06:42:26.485Z,88.28
2023-05-03T06:43:26.474Z,88.01
2023-05-03T06:44:26.472Z,89.01
2023-05-03T06:45:26.460Z,89.59
2023-05-03T06:46:26.514Z,88.55
2023-05-03T06:47:26.485Z,87.10
2023-05-03T06:48:26.514Z,86.24
2023-05-03T06:49:26.430Z,84.79
2023-05-03T06:50:26.411Z,84.11
2023-05-03T06:51:26.470Z,87.17
2023-05-03T06:52:26.397Z,86.41
2023-05-03T06:53:27.407Z,85.09
2023-05-03T06:54:26.424Z,84.06
2023-05-03T06:55:26.378Z,83.93
2023-05-03T06:56:26.399Z,84.79
2023-05-03T06:57:27.574Z,84.75
2023-05-03T06:58:26.361Z,82.79
2023-05-03T06:59:26.342Z,82.83
2023-05-03T07:00:26.351Z,84.03
2023-05-03T07:01:26.383Z,83.27
2023-05-03T07:02:26.391Z,84.06
2023-05-03T07:03:26.367Z,82.61
2023-05-03T07:04:26.315Z,81.31
2023-05-03T07:05:26.295Z,82.20
2023-05-03T07:06:26.342Z,80.86
2023-05-03T07:07:26.299Z,80.72
2023-05-03T07:08:26.299Z,79.24
2023-05-03T07:09:41.509Z,80.33
2023-05-03T07:10:30.199Z,77.48
2023-05-03T07:11:26.277Z,78.52
2023-05-03T07:12:26.243Z,77.59
2023-05-03T07:13:26.251Z,78.69
2023-05-03T07:14:26.232Z,77.76
2023-05-03T07:15:26.222Z,77.86
2023-05-03T07:16:26.283Z,76.70
2023-05-03T07:17:26.272Z,76.49
2023-05-03T07:18:26.218Z,77.42
2023-05-03T07:19:26.208Z,77.31
2023-05-03T07:20:26.240Z,77.34
2023-05-03T07:21:26.221Z,72.27
2023-05-03T07:22:26.169Z,71.21
2023-05-03T07:23:26.163Z,69.49
2023-05-03T07:24:26.223Z,69.49
2023-05-03T07:25:26.242Z,70.14
2023-05-03T07:26:26.144Z,72.68
2023-05-03T07:27:26.156Z,70.42
2023-05-03T07:28:26.140Z,71.55
2023-05-03T07:29:26.130Z,71.14
2023-05-03T07:30:26.133Z,71.00
2023-05-03T07:31:26.100Z,69.36
2023-05-03T07:32:26.188Z,68.78
2023-05-03T07:33:26.134Z,68.64
2023-05-03T07:34:26.094Z,68.10
2023-05-03T07:35:26.069Z,68.19
2023-05-03T07:36:26.068Z,68.06
2023-05-03T07:37:26.092Z,67.14
2023-05-03T07:38:26.040Z,69.02
2023-05-03T07:39:26.050Z,67.99
2023-05-03T07:40:26.067Z,68.68
2023-05-03T07:41:26.033Z,67.96
2023-05-03T07:42:26.060Z,67.71
2023-05-03T07:43:26.004Z,67.41
2023-05-03T07:44:26.003Z,68.81
2023-05-03T07:45:26.032Z,67.00
2023-05-03T07:46:26.184Z,66.83
2023-05-03T07:47:26.080Z,66.73
2023-05-03T07:48:25.975Z,65.60
2023-05-03T07:49:25.961Z,66.42
2023-05-03T07:50:25.950Z,65.80
2023-05-03T07:51:25.948Z,66.83
2023-05-03T07:52:26.883Z,67.24
2023-05-03T07:53:25.939Z,66.49
2023-05-03T07:54:25.919Z,67.03
2023-05-03T07:55:25.923Z,66.31
2023-05-03T07:56:25.907Z,65.77
2023-05-03T07:57:25.938Z,66.28
2023-05-03T07:58:38.837Z,64.78
2023-05-03T07:59:27.887Z,65.54
2023-05-03T08:00:25.877Z,65.51
2023-05-03T08:01:25.877Z,65.03
2023-05-03T08:02:25.991Z,65.16
2023-05-03T08:03:26.064Z,65.86
2023-05-03T08:04:26.175Z,66.76
2023-05-03T08:05:26.048Z,68.16
2023-05-03T08:06:25.872Z,67.00
2023-05-03T08:07:25.842Z,66.28
2023-05-03T08:08:25.836Z,68.51
2023-05-03T08:09:25.808Z,66.02
2023-05-03T08:10:25.799Z,64.57
2023-05-03T08:11:25.785Z,64.40
2023-05-03T08:12:25.802Z,66.93
2023-05-03T08:13:25.801Z,66.60
2023-05-03T08:14:25.791Z,65.22
2023-05-03T08:15:25.761Z,65.80
2023-05-03T08:16:25.859Z,65.70
2023-05-03T08:17:25.809Z,64.89
2023-05-03T08:18:25.752Z,63.46
2023-05-03T08:19:25.745Z,65.48
2023-05-03T08:20:25.721Z,64.83
2023-05-03T08:21:26.247Z,64.28
2023-05-03T08:22:25.734Z,65.64
2023-05-03T08:23:25.699Z,63.73
2023-05-03T08:24:25.693Z,63.02
2023-05-03T08:25:25.690Z,62.30
2023-05-03T08:26:25.681Z,63.56
2023-05-03T08:27:25.693Z,65.44
2023-05-03T08:28:25.679Z,64.76
2023-05-03T08:29:27.577Z,62.48
2023-05-03T08:30:26.660Z,62.39
2023-05-03T08:31:25.687Z,62.42
2023-05-03T08:32:25.694Z,62.78
2023-05-03T08:33:25.633Z,64.83
2023-05-03T08:34:26.611Z,63.94
2023-05-03T08:35:25.665Z,63.43
2023-05-03T08:36:25.601Z,64.97
2023-05-03T08:37:25.616Z,64.97
2023-05-03T08:38:25.585Z,62.32
2023-05-03T08:39:25.572Z,62.05
2023-05-03T08:40:25.593Z,60.21
2023-05-03T08:41:25.564Z,63.48
2023-05-03T08:42:25.943Z,61.70
2023-05-03T08:43:25.550Z,63.75
2023-05-03T08:44:25.538Z,62.88
2023-05-03T08:45:25.540Z,63.20
2023-05-03T08:46:25.575Z,62.37
2023-05-03T08:47:25.652Z,64.50
2023-05-03T08:48:26.275Z,61.29
2023-05-03T08:49:25.639Z,60.30
2023-05-03T08:50:25.570Z,62.17
2023-05-03T08:51:25.546Z,64.25
2023-05-03T08:52:25.545Z,64.53
2023-05-03T08:53:25.465Z,62.37
2023-05-03T08:54:25.499Z,64.16
2023-05-03T08:55:26.201Z,63.10
2023-05-03T08:56:25.469Z,62.42
2023-05-03T08:57:25.456Z,59.45
2023-05-03T08:58:25.486Z,60.55
2023-05-03T08:59:25.534Z,61.89
2023-05-03T09:00:25.431Z,63.15
2023-05-03T09:01:25.449Z,63.91
2023-05-03T09:02:25.492Z,62.68
2023-05-03T09:03:25.458Z,63.84
2023-05-03T09:04:25.430Z,61.86
2023-05-03T09:05:25.435Z,62.32
2023-05-03T09:06:25.394Z,63.92
2023-05-03T09:07:25.392Z,62.33
2023-05-03T09:08:25.367Z,60.26
2023-05-03T09:09:25.347Z,61.46
2023-05-03T09:10:25.344Z,58.16
2023-05-03T09:11:25.320Z,58.47
2023-05-03T09:12:25.314Z,58.95
2023-05-03T09:13:25.342Z,59.23
2023-05-03T09:14:25.294Z,60.16
2023-05-03T09:15:25.321Z,62.84
2023-05-03T09:16:25.329Z,64.31
2023-05-03T09:17:25.271Z,59.94
2023-05-03T09:18:25.289Z,62.85
2023-05-03T09:19:25.263Z,62.59
2023-05-03T09:20:25.253Z,60.24
2023-05-03T09:21:25.251Z,61.26
2023-05-03T09:22:25.235Z,62.05
2023-05-03T09:23:25.918Z,60.03
2023-05-03T09:24:25.242Z,60.41
2023-05-03T09:25:25.229Z,60.67
2023-05-03T09:26:25.276Z,59.96
2023-05-03T09:27:25.200Z,61.80
2023-05-03T09:28:25.215Z,62.73
2023-05-03T09:29:25.189Z,61.54
2023-05-03T09:30:25.169Z,60.83
2023-05-03T09:31:25.170Z,60.80
2023-05-03T09:32:25.350Z,60.39
2023-05-03T09:33:25.183Z,60.93
2023-05-03T09:34:25.144Z,59.73
2023-05-03T09:35:25.137Z,59.94
2023-05-03T09:36:25.142Z,60.01
2023-05-03T09:37:25.121Z,60.28
2023-05-03T09:38:25.447Z,60.60
2023-05-03T09:39:25.116Z,59.34
2023-05-03T09:40:25.095Z,59.73
2023-05-03T09:41:25.086Z,60.35
2023-05-03T09:42:25.090Z,60.11
2023-05-03T09:43:25.114Z,60.49
2023-05-03T09:44:25.131Z,60.16
2023-05-03T09:45:25.057Z,58.42
2023-05-03T09:46:25.194Z,59.21
2023-05-03T09:47:25.069Z,58.54
2023-05-03T09:48:25.066Z,56.71
2023-05-03T09:49:25.036Z,57.09
2023-05-03T09:50:25.049Z,56.45
2023-05-03T09:51:25.142Z,55.94
2023-05-03T09:52:25.022Z,56.32
2023-05-03T09:53:25.028Z,57.31
2023-05-03T09:54:25.696Z,57.49
2023-05-03T09:55:25.986Z,56.55
2023-05-03T09:56:24.975Z,58.19
2023-05-03T09:57:24.975Z,58.96
2023-05-03T09:58:24.992Z,59.75
2023-05-03T09:59:24.967Z,58.83
2023-05-03T10:00:24.944Z,58.75
2023-05-03T10:01:25.108Z,59.39
2023-05-03T10:02:24.968Z,60.49
2023-05-03T10:03:25.010Z,60.97
2023-05-03T10:04:25.068Z,61.63
2023-05-03T10:05:24.911Z,59.97
2023-05-03T10:06:24.959Z,59.49
2023-05-03T10:07:24.891Z,57.55
2023-05-03T10:08:24.926Z,57.88
2023-05-03T10:09:24.872Z,58.96
2023-05-03T10:10:24.871Z,58.75
2023-05-03T10:11:24.877Z,60.44
2023-05-03T10:12:24.951Z,58.96
2023-05-03T10:13:24.869Z,60.49
2023-05-03T10:14:24.860Z,60.46
2023-05-03T10:15:24.831Z,58.62
2023-05-03T10:16:24.965Z,58.60
2023-05-03T10:17:35.338Z,58.16
2023-05-03T10:18:26.864Z,58.69
2023-05-03T10:19:24.816Z,57.78
2023-05-03T10:20:24.798Z,58.03
2023-05-03T10:21:24.804Z,56.23
2023-05-03T10:22:24.783Z,57.04
2023-05-03T10:23:24.803Z,57.98
2023-05-03T10:24:24.762Z,58.06
2023-05-03T10:25:24.759Z,59.05
2023-05-03T10:26:24.744Z,59.56
2023-05-03T10:27:24.742Z,58.41
2023-05-03T10:28:24.758Z,55.15
2023-05-03T10:29:24.756Z,54.74
2023-05-03T10:30:24.749Z,56.07
2023-05-03T10:31:24.776Z,55.43
2023-05-03T10:32:24.773Z,53.59
2023-05-03T10:33:24.711Z,55.87
2023-05-03T10:34:24.735Z,56.45
2023-05-03T10:35:24.672Z,55.53
2023-05-03T10:36:26.028Z,55.74
2023-05-03T10:37:24.659Z,57.57
2023-05-03T10:38:24.749Z,55.81
2023-05-03T10:39:24.645Z,56.63
2023-05-03T10:40:24.719Z,55.35
2023-05-03T10:41:24.624Z,57.90
2023-05-03T10:42:24.684Z,56.78
2023-05-03T10:43:24.636Z,58.11
2023-05-03T10:44:24.610Z,56.55
2023-05-03T10:45:24.699Z,56.45
2023-05-03T10:46:24.601Z,56.85
2023-05-03T10:47:24.614Z,58.03
2023-05-03T10:48:24.589Z,56.81
2023-05-03T10:49:24.572Z,55.94
2023-05-03T10:50:24.551Z,55.15
2023-05-03T10:51:24.550Z,56.78
2023-05-03T10:52:24.544Z,57.67
2023-05-03T10:53:24.553Z,56.99
2023-05-03T10:54:24.527Z,57.06
2023-05-03T10:55:24.526Z,55.84
2023-05-03T10:56:24.510Z,56.15
2023-05-03T10:57:24.496Z,54.00
2023-05-03T10:58:25.264Z,56.22
2023-05-03T10:59:24.474Z,56.32
2023-05-03T11:00:24.477Z,55.91
2023-05-03T11:01:24.577Z,56.02
2023-05-03T11:02:24.515Z,56.40
2023-05-03T11:03:24.478Z,58.84
2023-05-03T11:04:24.505Z,54.74
2023-05-03T11:05:24.466Z,54.05
2023-05-03T11:06:24.468Z,56.47
2023-05-03T11:07:24.431Z,54.85
2023-05-03T11:08:24.438Z,54.28
2023-05-03T11:09:24.406Z,55.58
2023-05-03T11:10:24.413Z,53.98
2023-05-03T11:11:24.390Z,50.81
2023-05-03T11:12:24.378Z,51.62
2023-05-03T11:13:24.421Z,51.92
2023-05-03T11:14:24.368Z,52.73
2023-05-03T11:15:24.347Z,51.64
2023-05-03T11:16:24.409Z,53.88
2023-05-03T11:17:24.362Z,51.56
2023-05-03T11:18:24.370Z,53.27
2023-05-03T11:19:24.348Z,53.12
2023-05-03T11:20:24.317Z,53.50
2023-05-03T11:21:24.320Z,53.78
2023-05-03T11:22:24.306Z,54.54
2023-05-03T11:23:24.314Z,55.76
2023-05-03T11:24:24.288Z,57.77
2023-05-03T11:25:24.282Z,54.74
2023-05-03T11:26:24.476Z,54.66
2023-05-03T11:27:24.268Z,56.29
2023-05-03T11:28:24.285Z,54.85
2023-05-03T11:29:24.290Z,54.51
2023-05-03T11:30:24.393Z,55.60
2023-05-03T11:31:24.891Z,55.99
2023-05-03T11:32:24.340Z,55.30
2023-05-03T11:33:24.230Z,53.59
2023-05-03T11:34:24.202Z,53.93
2023-05-03T11:35:32.903Z,53.11
2023-05-03T11:36:24.188Z,52.43
2023-05-03T11:37:24.249Z,54.00
2023-05-03T11:38:24.232Z,56.49
2023-05-03T11:39:24.174Z,53.22
2023-05-03T11:40:24.178Z,53.75
2023-05-03T11:41:24.151Z,53.75
2023-05-03T11:42:24.148Z,52.56
2023-05-03T11:43:24.260Z,53.93
2023-05-03T11:44:24.125Z,54.33
2023-05-03T11:45:24.122Z,54.18
2023-05-03T11:46:24.213Z,53.29
2023-05-03T11:47:24.160Z,51.69
2023-05-03T11:48:24.217Z,53.59
2023-05-03T11:49:24.115Z,55.00
2023-05-03T11:50:24.079Z,50.62
2023-05-03T11:51:24.087Z,52.63
2023-05-03T11:52:24.099Z,55.68
2023-05-03T11:53:24.059Z,51.72
2023-05-03T11:54:27.066Z,51.11
2023-05-03T11:55:25.052Z,51.72
2023-05-03T11:56:24.057Z,53.27
2023-05-03T11:57:24.032Z,53.98
2023-05-03T11:58:24.019Z,54.16
2023-05-03T11:59:24.124Z,54.54
2023-05-03T12:00:24.004Z,54.36
2023-05-03T12:01:24.063Z,54.28
2023-05-03T12:02:24.147Z,53.55
2023-05-03T12:03:27.811Z,51.59
2023-05-03T12:04:26.227Z,53.63
2023-05-03T12:05:24.889Z,52.40
2023-05-03T12:06:24.209Z,52.71
2023-05-03T12:07:26.170Z,51.09
2023-05-03T12:08:25.609Z,52.73
2023-05-03T12:09:26.025Z,52.48
2023-05-03T12:10:26.506Z,53.50
2023-05-03T12:11:27.070Z,54.00
2023-05-03T12:12:27.651Z,52.08
2023-05-03T12:13:26.409Z,53.17
2023-05-03T12:14:24.039Z,51.46
2023-05-03T12:15:26.269Z,48.58
2023-05-03T12:16:24.001Z,48.74
2023-05-03T12:17:24.045Z,50.81
2023-05-03T12:18:23.997Z,50.73
2023-05-03T12:19:24.181Z,52.18
2023-05-03T12:21:30.223Z,52.73
2023-05-03T12:22:26.950Z,51.31
2023-05-03T12:23:26.579Z,52.69
2023-05-03T12:24:25.021Z,50.56
2023-05-03T12:25:26.400Z,51.31
2023-05-03T12:26:24.847Z,51.82
2023-05-03T12:27:24.126Z,51.06
2023-05-03T12:28:23.860Z,50.12
2023-05-03T12:29:24.015Z,50.63
2023-05-03T12:30:24.885Z,51.06
2023-05-03T12:31:24.005Z,51.26
2023-05-03T12:32:23.941Z,52.30
2023-05-03T12:33:23.882Z,52.30
2023-05-03T12:35:27.694Z,52.71
2023-05-03T12:36:26.223Z,52.53
2023-05-03T12:37:27.450Z,53.14
2023-05-03T12:38:25.426Z,53.83
2023-05-03T12:39:27.165Z,53.83
2023-05-03T12:40:32.463Z,53.12
2023-05-03T12:42:26.137Z,53.60
2023-05-03T12:43:23.807Z,53.78
2023-05-03T12:44:24.002Z,54.28
2023-05-03T12:45:27.480Z,51.75
2023-05-03T12:46:33.069Z,51.67
2023-05-03T12:47:28.943Z,52.48
2023-05-03T12:48:24.776Z,54.39
2023-05-03T12:49:24.077Z,54.08
2023-05-03T12:51:26.205Z,52.13
2023-05-03T12:52:36.291Z,52.56
2023-05-03T12:53:26.227Z,52.89
2023-05-03T12:55:25.639Z,53.47
2023-05-03T12:56:25.712Z,52.23
2023-05-03T12:57:24.822Z,52.94